Terminal Aerodrome Forecast
Issued by NWS

Home | Current Version | Previous Version | Graphics & Text | Print | Product List | Glossary On
Versions: 1 2 3 4 5 6 7 8 9 10 11 12 13 14 15
000
FTUS43 KICT 030520
TAFHUT
TAF
KHUT 030520Z 0306/0406 10007KT P6SM SCT150
     FM030700 17005KT P6SM BKN120
     FM031400 VRB05KT P6SM SCT150
     FM040000 25007KT P6SM SKC=

USA.gov is the U.S. government's official web portal to all federal, state and local government web resources and services.